Terminal Aerodrome Forecast
Issued by NWS

Home | Current Version | Previous Version | Text Only | Print | Product List | Glossary On
Versions: 1 2 3 4 5 6 7 8 9 10 11 12 13 14 15
000
FTUS43 KDLH 312329
TAFBRD
TAF
KBRD 312329Z 0100/0124 30013G22KT P6SM SKC
     FM010100 29008KT P6SM SKC
     FM010400 26004KT P6SM SKC
     FM011700 25008KT P6SM VCSH SCT080=

USA.gov is the U.S. government's official web portal to all federal, state and local government web resources and services.